Terminal Aerodrome Forecast
Issued by NWS

Home | Current Version | Previous Version | Text Only | Print | Product List | Glossary On
Versions: 1 2 3 4 5 6 7 8 9 10 11 12 13 14 15 16
000
FTUS46 KMTR 272336
TAFSTS
TAF
KSTS 272336Z 2800/2824 19010KT P6SM SKC
     FM280300 16005KT P6SM SKC
     FM280700 00000KT P6SM SKC
     FM281600 VRB05KT P6SM SKC
     FM281900 20009KT P6SM SKC=

USA.gov is the U.S. government's official web portal to all federal, state and local government web resources and services.